createdAt,value
2019-05-03T00:00:19.281Z,99425.26
2019-05-03T00:01:47.685Z,99417.38
2019-05-03T00:02:45.824Z,99425.86
2019-05-03T00:03:22.485Z,99425.86
2019-05-03T00:03:58.183Z,99432.34
2019-05-03T00:04:34.619Z,99425.64
2019-05-03T00:05:32.470Z,99430.75
2019-05-03T00:06:08.148Z,99431.33
2019-05-03T00:06:43.750Z,99429.03
2019-05-03T00:07:19.518Z,99429.03
2019-05-03T00:07:58.163Z,99428.23
2019-05-03T00:08:33.644Z,99428.23
2019-05-03T00:09:11.921Z,99422.59
2019-05-03T00:09:47.721Z,99425.41
2019-05-03T00:10:23.268Z,99425.41
2019-05-03T00:10:58.722Z,99420.57
2019-05-03T00:11:34.149Z,99420.57
2019-05-03T00:12:09.624Z,99421.95
2019-05-03T00:12:45.160Z,99421.06
2019-05-03T00:13:21.856Z,99419.63
2019-05-03T00:13:57.385Z,99419.63
2019-05-03T00:14:32.817Z,99426.52
2019-05-03T00:15:17.924Z,99426.52
2019-05-03T00:16:12.370Z,99425.53
2019-05-03T00:16:48.881Z,99422.86
2019-05-03T00:17:24.609Z,99424.34
2019-05-03T00:18:02.325Z,99421.48
2019-05-03T00:18:38.857Z,99415.31
2019-05-03T00:19:14.301Z,99425.53
2019-05-03T00:19:49.760Z,99425.53
2019-05-03T00:20:25.988Z,99422.86
2019-05-03T00:21:02.123Z,99412.65
2019-05-03T00:21:38.005Z,99412.65
2019-05-03T00:22:15.193Z,99421.30
2019-05-03T00:22:52.429Z,99414.89
2019-05-03T00:23:28.058Z,99421.48
2019-05-03T00:24:03.561Z,99424.72
2019-05-03T00:24:39.362Z,99422.13
2019-05-03T00:25:15.034Z,99416.08
2019-05-03T00:25:52.333Z,99420.42
2019-05-03T00:26:27.974Z,99409.20
2019-05-03T00:27:03.464Z,99409.20
2019-05-03T00:27:39.204Z,99412.88
2019-05-03T00:28:14.637Z,99412.38
2019-05-03T00:28:52.018Z,99406.32
2019-05-03T00:29:27.634Z,99406.32
2019-05-03T00:30:04.108Z,99407.77
2019-05-03T00:30:39.964Z,99411.54
2019-05-03T00:31:15.767Z,99409.48
2019-05-03T00:31:51.654Z,99409.02
2019-05-03T00:32:28.590Z,99405.90
2019-05-03T00:33:04.394Z,99415.92
2019-05-03T00:33:42.260Z,99406.70
2019-05-03T00:34:21.883Z,99408.84
2019-05-03T00:35:01.652Z,99404.22
2019-05-03T00:35:54.536Z,99412.91
2019-05-03T00:36:38.841Z,99405.59
2019-05-03T00:37:15.097Z,99403.88
2019-05-03T00:37:52.587Z,99408.61
2019-05-03T00:38:28.189Z,99410.02
2019-05-03T00:39:16.803Z,99409.02
2019-05-03T00:40:04.843Z,99407.00
2019-05-03T00:40:41.677Z,99407.00
2019-05-03T00:41:17.250Z,99406.97
2019-05-03T00:41:53.108Z,99414.28
2019-05-03T00:42:28.579Z,99414.28
2019-05-03T00:43:04.104Z,99412.56
2019-05-03T00:43:39.594Z,99397.55
2019-05-03T00:44:15.118Z,99407.39
2019-05-03T00:44:51.709Z,99411.89
2019-05-03T00:45:27.296Z,99407.23
2019-05-03T00:46:02.838Z,99407.23
2019-05-03T00:46:38.931Z,99402.47
2019-05-03T00:47:14.491Z,99409.56
2019-05-03T00:47:50.060Z,99407.20
2019-05-03T00:48:25.530Z,99412.08
2019-05-03T00:49:00.967Z,99412.08
2019-05-03T00:49:36.457Z,99411.89
2019-05-03T00:50:12.150Z,99409.67
2019-05-03T00:50:47.654Z,99412.52
2019-05-03T00:51:23.102Z,99411.95
2019-05-03T00:51:58.583Z,99410.05
2019-05-03T00:52:34.722Z,99408.91
2019-05-03T00:53:11.731Z,99412.27
2019-05-03T00:53:48.195Z,99415.77
2019-05-03T00:54:24.332Z,99416.38
2019-05-03T00:55:02.036Z,99412.91
2019-05-03T00:55:37.699Z,99407.31
2019-05-03T00:56:13.236Z,99410.24
2019-05-03T00:56:49.646Z,99413.45
2019-05-03T00:57:27.495Z,99411.02
2019-05-03T00:58:03.089Z,99412.30
2019-05-03T00:58:52.967Z,99416.04
2019-05-03T00:59:28.914Z,99415.58
2019-05-03T01:00:05.167Z,99415.92
2019-05-03T01:00:41.746Z,99413.19
2019-05-03T01:01:17.862Z,99412.23
2019-05-03T01:01:53.326Z,99411.20
2019-05-03T01:02:28.792Z,99410.78
2019-05-03T01:03:05.220Z,99410.78
2019-05-03T01:03:41.852Z,99408.08
2019-05-03T01:04:17.880Z,99408.27
2019-05-03T01:04:53.301Z,99403.23
2019-05-03T01:05:29.392Z,99411.58
2019-05-03T01:06:05.296Z,99410.78
2019-05-03T01:06:42.332Z,99410.78
2019-05-03T01:07:17.966Z,99408.95
2019-05-03T01:07:53.441Z,99408.69
2019-05-03T01:08:28.902Z,99406.52
2019-05-03T01:09:07.366Z,99409.30
2019-05-03T01:09:42.836Z,99409.48
2019-05-03T01:10:18.297Z,99408.11
2019-05-03T01:10:53.758Z,99408.11
2019-05-03T01:11:29.197Z,99414.02
2019-05-03T01:12:05.026Z,99409.67
2019-05-03T01:12:41.678Z,99414.48
2019-05-03T01:13:17.167Z,99415.89
2019-05-03T01:13:53.050Z,99417.55
2019-05-03T01:14:28.493Z,99419.73
2019-05-03T01:15:06.354Z,99420.42
2019-05-03T01:15:52.089Z,99422.55
2019-05-03T01:16:27.573Z,99419.73
2019-05-03T01:17:03.062Z,99419.73
2019-05-03T01:17:38.620Z,99416.16
2019-05-03T01:18:16.231Z,99416.72
2019-05-03T01:18:52.342Z,99418.29
2019-05-03T01:19:28.644Z,99414.66
2019-05-03T01:20:04.826Z,99418.37
2019-05-03T01:20:42.173Z,99418.37
2019-05-03T01:21:18.475Z,99417.67
2019-05-03T01:21:53.930Z,99427.13
2019-05-03T01:22:29.698Z,99424.95
2019-05-03T01:23:06.369Z,99422.67
2019-05-03T01:23:42.431Z,99421.91
2019-05-03T01:24:18.529Z,99419.00
2019-05-03T01:24:54.779Z,99422.44
2019-05-03T01:25:35.204Z,99424.38
2019-05-03T01:26:07.737Z,99416.63
2019-05-03T01:26:43.199Z,99422.09
2019-05-03T01:27:19.327Z,99426.55
2019-05-03T01:27:54.833Z,99428.87
2019-05-03T01:28:32.179Z,99428.23
2019-05-03T01:29:07.902Z,99433.30
2019-05-03T01:29:43.382Z,99425.90
2019-05-03T01:30:18.940Z,99434.16
2019-05-03T01:30:54.910Z,99432.57
2019-05-03T01:31:31.916Z,99431.05
2019-05-03T01:32:08.054Z,99429.98
2019-05-03T01:32:43.744Z,99389.48
2019-05-03T01:33:19.234Z,99431.05
2019-05-03T01:33:55.080Z,99434.90
2019-05-03T01:34:32.669Z,99436.12
2019-05-03T01:35:08.346Z,99430.30
2019-05-03T01:35:43.810Z,99438.52
2019-05-03T01:36:19.592Z,99439.94
2019-05-03T01:36:55.374Z,99436.89
2019-05-03T01:37:31.899Z,99441.91
2019-05-03T01:38:08.125Z,99435.59
2019-05-03T01:38:43.958Z,99442.64
2019-05-03T01:39:19.664Z,99440.20
2019-05-03T01:39:55.126Z,99436.39
2019-05-03T01:40:32.637Z,99444.55
2019-05-03T01:41:08.880Z,99441.30
2019-05-03T01:41:44.879Z,99441.30
2019-05-03T01:42:22.465Z,99439.25
2019-05-03T01:42:57.906Z,99443.25
2019-05-03T01:43:33.484Z,99451.33
2019-05-03T01:44:09.486Z,99432.34
2019-05-03T01:44:45.439Z,99441.48
2019-05-03T01:45:22.735Z,99441.48
2019-05-03T01:45:58.372Z,99444.91
2019-05-03T01:46:34.201Z,99451.28
2019-05-03T01:47:13.309Z,99441.80
2019-05-03T01:47:54.982Z,99445.30
2019-05-03T01:48:45.083Z,99449.00
2019-05-03T01:49:32.099Z,99449.00
2019-05-03T01:50:18.205Z,99446.14
2019-05-03T01:51:19.198Z,99444.38
2019-05-03T01:52:13.598Z,99444.38
2019-05-03T01:52:49.450Z,99451.52
2019-05-03T01:53:25.882Z,99443.81
2019-05-03T01:54:01.751Z,99446.33
2019-05-03T01:54:37.540Z,99446.64
2019-05-03T01:55:15.841Z,99446.64
2019-05-03T01:55:53.913Z,99448.47
2019-05-03T01:56:29.347Z,99441.18
2019-05-03T01:57:04.844Z,99447.31
2019-05-03T01:57:41.897Z,99446.36
2019-05-03T01:58:17.988Z,99446.36
2019-05-03T01:58:53.563Z,99442.02
2019-05-03T01:59:29.368Z,99447.77
2019-05-03T02:00:08.438Z,99453.91
2019-05-03T02:00:44.082Z,99454.72
2019-05-03T02:01:47.318Z,99452.58
2019-05-03T02:02:38.370Z,99452.58
2019-05-03T02:03:21.800Z,99451.17
2019-05-03T02:04:06.043Z,99457.27
2019-05-03T02:04:48.631Z,99459.31
2019-05-03T02:05:43.577Z,99453.98
2019-05-03T02:06:19.008Z,99450.94
2019-05-03T02:06:54.521Z,99453.52
2019-05-03T02:07:31.641Z,99452.16
2019-05-03T02:08:07.270Z,99452.16
2019-05-03T02:08:43.079Z,99457.61
2019-05-03T02:09:18.894Z,99453.14
2019-05-03T02:09:54.653Z,99459.55
2019-05-03T02:10:32.170Z,99459.55
2019-05-03T02:11:07.918Z,99457.56
2019-05-03T02:11:43.405Z,99451.19
2019-05-03T02:12:18.875Z,99459.11
2019-05-03T02:12:54.705Z,99457.00
2019-05-03T02:13:32.028Z,99459.61
2019-05-03T02:14:07.478Z,99455.45
2019-05-03T02:14:42.931Z,99461.90
2019-05-03T02:15:18.398Z,99457.33
2019-05-03T02:15:54.220Z,99458.03
2019-05-03T02:16:29.692Z,99453.53
2019-05-03T02:17:05.474Z,99457.30
2019-05-03T02:17:42.710Z,99446.62
2019-05-03T02:18:19.056Z,99466.20
2019-05-03T02:18:54.480Z,99466.20
2019-05-03T02:19:29.938Z,99448.16
2019-05-03T02:20:05.821Z,99451.91
2019-05-03T02:20:41.820Z,99451.36
2019-05-03T02:21:17.506Z,99451.36
2019-05-03T02:21:52.951Z,99460.35
2019-05-03T02:22:28.876Z,99455.34
2019-05-03T02:23:04.505Z,99455.34
2019-05-03T02:23:42.467Z,99455.11
2019-05-03T02:24:17.588Z,99456.95
2019-05-03T02:24:53.059Z,99456.95
2019-05-03T02:25:28.630Z,99462.41
2019-05-03T02:26:04.113Z,99457.03
2019-05-03T02:26:39.632Z,99457.03
2019-05-03T02:27:15.095Z,99454.58
2019-05-03T02:27:52.665Z,99463.56
2019-05-03T02:28:28.302Z,99455.80
2019-05-03T02:29:04.288Z,99441.27
2019-05-03T02:29:41.854Z,99456.19
2019-05-03T02:30:17.420Z,99454.83
2019-05-03T02:30:53.546Z,99462.59
2019-05-03T02:31:29.233Z,99451.78
2019-05-03T02:32:05.214Z,99464.09
2019-05-03T02:32:43.803Z,99463.25
2019-05-03T02:33:18.595Z,99458.25
2019-05-03T02:33:54.835Z,99458.70
2019-05-03T02:34:32.715Z,99458.46
2019-05-03T02:35:07.902Z,99453.14
2019-05-03T02:35:43.413Z,99462.73
2019-05-03T02:36:18.886Z,99462.73
2019-05-03T02:36:54.345Z,99463.63
2019-05-03T02:37:32.872Z,99457.02
2019-05-03T02:38:08.003Z,99463.62
2019-05-03T02:38:43.503Z,99463.62
2019-05-03T02:39:22.633Z,99467.96
2019-05-03T02:39:58.019Z,99468.52
2019-05-03T02:40:33.957Z,99462.50
2019-05-03T02:41:09.735Z,99456.17
2019-05-03T02:41:48.437Z,99465.86
2019-05-03T02:42:26.644Z,99465.86
2019-05-03T02:43:26.015Z,99471.94
2019-05-03T02:44:01.700Z,99471.03
2019-05-03T02:44:37.544Z,99466.77
2019-05-03T02:45:19.607Z,99467.88
2019-05-03T02:46:25.319Z,99473.22
2019-05-03T02:47:19.401Z,99470.47
2019-05-03T02:48:07.630Z,99468.97
2019-05-03T02:48:50.260Z,99472.45
2019-05-03T02:49:35.560Z,99472.45
2019-05-03T02:50:16.664Z,99470.56
2019-05-03T02:50:51.789Z,99477.55
2019-05-03T02:51:27.227Z,99472.70
2019-05-03T02:52:02.694Z,99472.70
2019-05-03T02:52:38.463Z,99474.13
2019-05-03T02:53:15.686Z,99466.76
2019-05-03T02:53:51.248Z,99472.69
2019-05-03T02:54:27.282Z,99466.29
2019-05-03T02:55:05.860Z,99470.62
2019-05-03T02:55:40.568Z,99471.46
2019-05-03T02:56:22.250Z,99475.47
2019-05-03T02:56:55.757Z,99475.19
2019-05-03T02:57:30.434Z,99470.98
2019-05-03T02:58:06.094Z,99470.98
2019-05-03T02:58:42.047Z,99469.08
2019-05-03T02:59:17.611Z,99478.68
2019-05-03T02:59:54.952Z,99478.68
2019-05-03T03:00:59.609Z,99478.97
2019-05-03T03:01:36.075Z,99479.13
2019-05-03T03:02:12.256Z,99467.94
2019-05-03T03:02:47.747Z,99475.39
2019-05-03T03:03:25.502Z,99473.19
2019-05-03T03:04:01.753Z,99477.91
2019-05-03T03:04:37.596Z,99468.97
2019-05-03T03:05:16.484Z,99468.97
2019-05-03T03:05:55.961Z,99473.63
2019-05-03T03:06:32.925Z,99473.63
2019-05-03T03:07:08.646Z,99469.52
2019-05-03T03:07:47.000Z,99471.72
2019-05-03T03:08:25.403Z,99475.82
2019-05-03T03:09:01.322Z,99473.23
2019-05-03T03:09:37.232Z,99474.53
2019-05-03T03:10:16.012Z,99470.27
2019-05-03T03:10:51.820Z,99471.20
2019-05-03T03:11:30.204Z,99464.58
2019-05-03T03:12:07.797Z,99472.03
2019-05-03T03:12:46.455Z,99473.69
2019-05-03T03:13:25.570Z,99474.01
2019-05-03T03:14:05.706Z,99473.34
2019-05-03T03:14:41.612Z,99466.69
2019-05-03T03:15:17.175Z,99472.02
2019-05-03T03:15:55.311Z,99475.34
2019-05-03T03:16:36.320Z,99475.89
2019-05-03T03:17:14.920Z,99471.47
2019-05-03T03:17:56.026Z,99477.41
2019-05-03T03:18:36.491Z,99479.09
2019-05-03T03:19:15.907Z,99468.98
2019-05-03T03:19:55.242Z,99479.61
2019-05-03T03:20:32.724Z,99484.97
2019-05-03T03:21:12.359Z,99478.02
2019-05-03T03:21:49.884Z,99474.98
2019-05-03T03:22:27.049Z,99475.30
2019-05-03T03:23:06.139Z,99482.02
2019-05-03T03:23:56.210Z,99480.79
2019-05-03T03:24:36.129Z,99481.08
2019-05-03T03:25:17.820Z,99480.88
2019-05-03T03:25:55.841Z,99481.27
2019-05-03T03:26:38.205Z,99481.27
2019-05-03T03:27:12.223Z,99483.92
2019-05-03T03:27:50.243Z,99483.16
2019-05-03T03:28:27.704Z,99487.17
2019-05-03T03:29:06.036Z,99488.12
2019-05-03T03:29:45.906Z,99490.69
2019-05-03T03:30:48.626Z,99492.00
2019-05-03T03:31:30.141Z,99489.39
2019-05-03T03:32:30.009Z,99492.71
2019-05-03T03:33:09.404Z,99489.09
2019-05-03T03:33:47.424Z,99486.05
2019-05-03T03:34:28.075Z,99487.02
2019-05-03T03:35:13.181Z,99486.61
2019-05-03T03:35:49.441Z,99486.33
2019-05-03T03:36:45.996Z,99489.56
2019-05-03T03:37:06.560Z,99491.08
2019-05-03T03:37:41.467Z,99486.36
2019-05-03T03:38:17.325Z,99487.14
2019-05-03T03:38:55.380Z,99491.92
2019-05-03T03:39:30.319Z,99488.88
2019-05-03T03:40:06.312Z,99496.86
2019-05-03T03:40:45.324Z,99489.36
2019-05-03T03:41:21.009Z,99496.11
2019-05-03T03:41:57.305Z,99491.69
2019-05-03T03:42:36.050Z,99488.43
2019-05-03T03:43:15.655Z,99496.34
2019-05-03T03:43:55.743Z,99494.14
2019-05-03T03:44:31.154Z,99492.48
2019-05-03T03:45:07.139Z,99498.70
2019-05-03T03:45:45.452Z,99491.63
2019-05-03T03:46:25.157Z,99500.67
2019-05-03T03:47:05.101Z,99496.80
2019-05-03T03:47:40.434Z,99494.14
2019-05-03T03:48:19.691Z,99502.35
2019-05-03T03:48:57.109Z,99506.55
2019-05-03T03:49:35.580Z,99508.36
2019-05-03T03:50:11.757Z,99505.26
2019-05-03T03:50:50.359Z,99501.90
2019-05-03T03:51:28.868Z,99510.49
2019-05-03T03:52:06.121Z,99514.05
2019-05-03T03:52:45.139Z,99511.23
2019-05-03T03:53:22.828Z,99509.49
2019-05-03T03:53:59.754Z,99513.95
2019-05-03T03:54:36.713Z,99514.27
2019-05-03T03:55:12.242Z,99512.30
2019-05-03T03:55:49.342Z,99508.42
2019-05-03T03:56:28.075Z,99519.28
2019-05-03T03:57:08.218Z,99516.11
2019-05-03T03:57:46.519Z,99517.86
2019-05-03T03:58:22.774Z,99514.20
2019-05-03T03:58:57.868Z,99511.43
2019-05-03T03:59:36.288Z,99511.43
2019-05-03T04:00:12.780Z,99519.19
2019-05-03T04:00:48.579Z,99517.89
2019-05-03T04:01:26.682Z,99517.89
2019-05-03T04:02:01.707Z,99517.15
2019-05-03T04:02:38.444Z,99524.84
2019-05-03T04:03:15.798Z,99524.87
2019-05-03T04:03:51.383Z,99525.32
2019-05-03T04:04:28.046Z,99523.25
2019-05-03T04:05:05.572Z,99512.37
2019-05-03T04:05:41.180Z,99523.73
2019-05-03T04:06:16.767Z,99523.73
2019-05-03T04:06:55.741Z,99526.77
2019-05-03T04:07:31.471Z,99520.05
2019-05-03T04:08:07.386Z,99524.77
2019-05-03T04:08:45.159Z,99528.27
2019-05-03T04:09:20.652Z,99528.81
2019-05-03T04:09:56.610Z,99528.55
2019-05-03T04:10:32.061Z,99520.19
2019-05-03T04:11:07.724Z,99520.19
2019-05-03T04:11:46.171Z,99530.68
2019-05-03T04:12:26.402Z,99526.25
2019-05-03T04:13:00.095Z,99524.34
2019-05-03T04:13:36.648Z,99532.70
2019-05-03T04:14:16.636Z,99532.09
2019-05-03T04:15:08.729Z,99531.55
2019-05-03T04:15:57.577Z,99529.95
2019-05-03T04:16:45.299Z,99532.22
2019-05-03T04:17:48.664Z,99530.41
2019-05-03T04:18:45.798Z,99533.51
2019-05-03T04:19:25.242Z,99532.50
2019-05-03T04:20:01.518Z,99536.41
2019-05-03T04:20:37.536Z,99534.56
2019-05-03T04:21:13.089Z,99536.05
2019-05-03T04:21:48.982Z,99541.15
2019-05-03T04:22:25.364Z,99540.19
2019-05-03T04:23:01.058Z,99537.70
2019-05-03T04:23:36.635Z,99538.16
2019-05-03T04:24:12.121Z,99538.33
2019-05-03T04:24:47.595Z,99544.91
2019-05-03T04:25:25.857Z,99537.81
2019-05-03T04:26:00.974Z,99547.31
2019-05-03T04:26:37.334Z,99548.62
2019-05-03T04:27:22.221Z,99547.05
2019-05-03T04:27:50.729Z,99544.45
2019-05-03T04:28:26.575Z,99550.42
2019-05-03T04:29:05.067Z,99544.24
2019-05-03T04:29:39.650Z,99547.49
2019-05-03T04:30:16.426Z,99553.50
2019-05-03T04:30:55.201Z,99548.33
2019-05-03T04:31:29.618Z,99546.98
2019-05-03T04:32:06.193Z,99545.47
2019-05-03T04:32:41.706Z,99553.89
2019-05-03T04:33:17.790Z,99554.23
2019-05-03T04:33:56.274Z,99549.75
2019-05-03T04:34:30.830Z,99557.44
2019-05-03T04:35:06.587Z,99556.59
2019-05-03T04:35:42.175Z,99558.55
2019-05-03T04:36:17.616Z,99558.52
2019-05-03T04:36:55.417Z,99551.93
2019-05-03T04:37:30.649Z,99555.69
2019-05-03T04:38:06.237Z,99561.25
2019-05-03T04:38:41.830Z,99553.39
2019-05-03T04:39:20.215Z,99561.82
2019-05-03T04:39:56.058Z,99560.28
2019-05-03T04:40:35.393Z,99560.97
2019-05-03T04:41:09.796Z,99558.78
2019-05-03T04:41:45.473Z,99560.41
2019-05-03T04:42:21.080Z,99562.42
2019-05-03T04:42:56.568Z,99551.59
2019-05-03T04:43:32.011Z,99560.02
2019-05-03T04:44:07.863Z,99554.95
2019-05-03T04:44:45.683Z,99555.47
2019-05-03T04:45:20.934Z,99554.17
2019-05-03T04:46:06.657Z,99557.38
2019-05-03T04:46:42.364Z,99556.30
2019-05-03T04:47:17.827Z,99558.73
2019-05-03T04:47:55.659Z,99559.00
2019-05-03T04:48:30.436Z,99561.52
2019-05-03T04:49:07.516Z,99562.48
2019-05-03T04:49:45.992Z,99568.10
2019-05-03T04:50:20.553Z,99558.33
2019-05-03T04:50:56.020Z,99565.13
2019-05-03T04:51:31.470Z,99565.13
2019-05-03T04:52:06.979Z,99570.05
2019-05-03T04:52:46.023Z,99563.77
2019-05-03T04:53:20.033Z,99567.70
2019-05-03T04:54:16.015Z,99567.66
2019-05-03T04:54:56.350Z,99573.73
2019-05-03T04:55:32.199Z,99570.64
2019-05-03T04:56:08.081Z,99573.52
2019-05-03T04:56:46.190Z,99573.16
2019-05-03T04:57:35.110Z,99572.88
2019-05-03T04:57:58.020Z,99578.77
2019-05-03T04:58:36.113Z,99583.06
2019-05-03T04:59:11.126Z,99581.67
2019-05-03T04:59:46.596Z,99580.31
2019-05-03T05:00:25.362Z,99583.78
2019-05-03T05:00:59.848Z,99589.81
2019-05-03T05:01:35.416Z,99589.81
2019-05-03T05:02:10.928Z,99588.01
2019-05-03T05:02:46.867Z,99584.70
2019-05-03T05:03:22.611Z,99592.69
2019-05-03T05:03:58.087Z,99592.69
2019-05-03T05:04:35.791Z,99594.34
2019-05-03T05:05:11.159Z,99586.23
2019-05-03T05:05:46.620Z,99592.34
2019-05-03T05:06:22.100Z,99591.41
2019-05-03T05:06:57.895Z,99591.41
2019-05-03T05:07:35.063Z,99599.71
2019-05-03T05:08:11.192Z,99604.50
2019-05-03T05:08:46.711Z,99604.33
2019-05-03T05:09:22.256Z,99606.40
2019-05-03T05:09:57.739Z,99604.77
2019-05-03T05:10:33.229Z,99602.72
2019-05-03T05:11:10.634Z,99604.27
2019-05-03T05:11:46.601Z,99604.27
2019-05-03T05:12:22.064Z,99603.33
2019-05-03T05:12:57.552Z,99601.39
2019-05-03T05:13:35.604Z,99604.02
2019-05-03T05:14:10.706Z,99604.02
2019-05-03T05:14:46.169Z,99603.99
2019-05-03T05:15:21.969Z,99613.81
2019-05-03T05:15:57.797Z,99607.38
2019-05-03T05:16:35.615Z,99605.69
2019-05-03T05:17:12.928Z,99609.51
2019-05-03T05:17:56.309Z,99610.41
2019-05-03T05:18:35.915Z,99614.61
2019-05-03T05:19:15.163Z,99612.59
2019-05-03T05:20:00.795Z,99610.23
2019-05-03T05:20:46.598Z,99591.02
2019-05-03T05:21:25.444Z,99618.88
2019-05-03T05:22:05.897Z,99615.83
2019-05-03T05:22:40.954Z,99617.37
2019-05-03T05:23:16.409Z,99619.56
2019-05-03T05:24:17.330Z,99613.62
2019-05-03T05:24:55.151Z,99621.48
2019-05-03T05:25:35.416Z,99615.28
2019-05-03T05:26:16.362Z,99615.28
2019-05-03T05:27:05.369Z,99624.17
2019-05-03T05:28:01.943Z,99622.43
2019-05-03T05:28:58.293Z,99619.41
2019-05-03T05:29:34.642Z,99624.70
2019-05-03T05:30:11.426Z,99625.98
2019-05-03T05:30:47.778Z,99622.10
2019-05-03T05:31:25.318Z,99626.05
2019-05-03T05:32:00.399Z,99618.23
2019-05-03T05:32:36.505Z,99625.58
2019-05-03T05:33:20.718Z,99621.83
2019-05-03T05:33:56.971Z,99623.44
2019-05-03T05:34:34.784Z,99625.59
2019-05-03T05:35:10.425Z,99622.60
2019-05-03T05:35:46.514Z,99624.62
2019-05-03T05:36:22.086Z,99623.86
2019-05-03T05:36:57.552Z,99624.94
2019-05-03T05:37:35.127Z,99628.19
2019-05-03T05:38:10.624Z,99623.20
2019-05-03T05:38:46.489Z,99620.73
2019-05-03T05:39:21.936Z,99615.34
2019-05-03T05:39:57.411Z,99615.06
2019-05-03T05:40:34.911Z,99616.08
2019-05-03T05:41:11.052Z,99616.51
2019-05-03T05:41:46.774Z,99617.19
2019-05-03T05:42:22.575Z,99621.52
2019-05-03T05:42:58.037Z,99625.72
2019-05-03T05:43:35.536Z,99624.80
2019-05-03T05:44:10.814Z,99623.38
2019-05-03T05:44:46.746Z,99623.08
2019-05-03T05:45:24.419Z,99622.95
2019-05-03T05:45:59.412Z,99626.91
2019-05-03T05:46:42.443Z,99621.16
2019-05-03T05:47:46.804Z,99622.43
2019-05-03T05:48:30.952Z,99625.99
2019-05-03T05:49:07.469Z,99621.67
2019-05-03T05:49:54.577Z,99627.08
2019-05-03T05:50:55.347Z,99624.70
2019-05-03T05:51:30.795Z,99623.55
2019-05-03T05:52:06.356Z,99623.91
2019-05-03T05:52:41.880Z,99622.66
2019-05-03T05:53:17.726Z,99622.63
2019-05-03T05:53:54.943Z,99626.57
2019-05-03T05:54:30.422Z,99621.85
2019-05-03T05:55:26.918Z,99623.50
2019-05-03T05:56:31.438Z,99621.71
2019-05-03T05:57:26.124Z,99625.59
2019-05-03T05:58:08.452Z,99620.91
2019-05-03T05:59:18.515Z,99626.02
2019-05-03T05:59:59.132Z,99632.59
2019-05-03T06:00:46.190Z,99631.70
2019-05-03T06:01:25.579Z,99625.85
2019-05-03T06:02:04.920Z,99624.52
2019-05-03T06:02:40.479Z,99628.28
2019-05-03T06:03:15.994Z,99617.47
2019-05-03T06:03:51.545Z,99627.83
2019-05-03T06:04:27.040Z,99631.69
2019-05-03T06:05:04.815Z,99632.00
2019-05-03T06:05:41.055Z,99630.95
2019-05-03T06:06:24.421Z,99625.47
2019-05-03T06:07:24.856Z,99631.83
2019-05-03T06:08:18.676Z,99636.42
2019-05-03T06:09:11.870Z,99636.42
2019-05-03T06:09:54.972Z,99636.05
2019-05-03T06:10:58.678Z,99639.98
2019-05-03T06:11:51.561Z,99639.08
2019-05-03T06:12:35.229Z,99640.88
2019-05-03T06:13:21.176Z,99636.88
2019-05-03T06:14:18.521Z,99638.80
2019-05-03T06:14:57.555Z,99643.35
2019-05-03T06:15:39.505Z,99649.07
2019-05-03T06:16:29.284Z,99642.93
2019-05-03T06:17:10.877Z,99647.65
2019-05-03T06:17:50.934Z,99647.65
2019-05-03T06:18:35.385Z,99642.35
2019-05-03T06:19:14.965Z,99648.73
2019-05-03T06:19:58.725Z,99647.30
2019-05-03T06:20:41.937Z,99643.47
2019-05-03T06:21:22.578Z,99652.91
2019-05-03T06:22:11.168Z,99646.48
2019-05-03T06:22:50.190Z,99650.07
2019-05-03T06:23:30.345Z,99644.71
2019-05-03T06:24:10.870Z,99647.97
2019-05-03T06:24:51.436Z,99650.33
2019-05-03T06:25:39.473Z,99641.23
2019-05-03T06:26:34.523Z,99646.58
2019-05-03T06:27:24.371Z,99649.83
2019-05-03T06:28:01.598Z,99647.12
2019-05-03T06:28:37.078Z,99652.57
2019-05-03T06:29:14.814Z,99651.97
2019-05-03T06:29:50.796Z,99651.97
2019-05-03T06:30:45.739Z,99648.70
2019-05-03T06:31:29.518Z,99650.70
2019-05-03T06:32:29.914Z,99655.72
2019-05-03T06:33:05.455Z,99643.70
2019-05-03T06:33:41.669Z,99643.70
2019-05-03T06:34:17.162Z,99646.12
2019-05-03T06:34:54.543Z,99648.06
2019-05-03T06:35:30.217Z,99654.14
2019-05-03T06:36:05.815Z,99650.42
2019-05-03T06:36:44.267Z,99648.30
2019-05-03T06:37:21.515Z,99643.52
2019-05-03T06:37:57.020Z,99652.25
2019-05-03T06:38:34.435Z,99652.48
2019-05-03T06:39:10.067Z,99642.44
2019-05-03T06:39:45.600Z,99652.19
2019-05-03T06:40:21.093Z,99650.03
2019-05-03T06:40:57.280Z,99655.34
2019-05-03T06:41:35.202Z,99652.50
2019-05-03T06:42:17.469Z,99654.50
2019-05-03T06:42:54.129Z,99650.20
2019-05-03T06:43:25.246Z,99652.42
2019-05-03T06:44:00.737Z,99647.73
2019-05-03T06:44:36.458Z,99647.73
2019-05-03T06:45:12.570Z,99653.25
2019-05-03T06:45:50.441Z,99653.25
2019-05-03T06:46:45.569Z,99648.04
2019-05-03T06:47:20.794Z,99655.83
2019-05-03T06:47:56.686Z,99651.86
2019-05-03T06:48:34.793Z,99655.89
2019-05-03T06:49:11.054Z,99647.12
2019-05-03T06:49:48.420Z,99654.25
2019-05-03T06:50:28.710Z,99657.31
2019-05-03T06:51:08.699Z,99648.47
2019-05-03T06:51:40.085Z,99648.47
2019-05-03T06:52:19.726Z,99649.84
2019-05-03T06:52:54.818Z,99652.05
2019-05-03T06:53:31.027Z,99654.80
2019-05-03T06:54:06.841Z,99650.47
2019-05-03T06:54:42.312Z,99650.48
2019-05-03T06:55:17.830Z,99654.72
2019-05-03T06:55:55.248Z,99656.33
2019-05-03T06:56:30.593Z,99660.22
2019-05-03T06:57:09.477Z,99659.45
2019-05-03T06:57:49.614Z,99649.41
2019-05-03T06:58:31.220Z,99652.78
2019-05-03T06:59:00.723Z,99651.58
2019-05-03T06:59:50.689Z,99651.41
2019-05-03T07:00:48.465Z,99652.04
2019-05-03T07:01:30.491Z,99649.34
2019-05-03T07:02:28.411Z,99651.53
2019-05-03T07:03:08.230Z,99660.90
2019-05-03T07:03:48.816Z,99660.90
2019-05-03T07:04:27.726Z,99661.17
2019-05-03T07:05:05.106Z,99661.17
2019-05-03T07:05:58.897Z,99665.78
2019-05-03T07:06:48.784Z,99652.28
2019-05-03T07:07:39.992Z,99646.34
2019-05-03T07:08:34.421Z,99646.34
2019-05-03T07:09:28.395Z,99654.40
2019-05-03T07:10:24.949Z,99657.32
2019-05-03T07:11:01.266Z,99659.48
2019-05-03T07:11:36.996Z,99663.42
2019-05-03T07:12:14.695Z,99657.84
2019-05-03T07:13:01.204Z,99667.47
2019-05-03T07:13:37.294Z,99663.07
2019-05-03T07:14:15.572Z,99663.58
2019-05-03T07:14:51.215Z,99661.56
2019-05-03T07:15:27.174Z,99664.78
2019-05-03T07:16:04.680Z,99666.01
2019-05-03T07:16:40.961Z,99665.56
2019-05-03T07:17:16.757Z,99659.76
2019-05-03T07:17:52.301Z,99660.16
2019-05-03T07:18:28.234Z,99660.99
2019-05-03T07:19:04.474Z,99669.75
2019-05-03T07:19:40.109Z,99670.45
2019-05-03T07:20:16.072Z,99669.16
2019-05-03T07:20:57.240Z,99673.12
2019-05-03T07:21:35.426Z,99670.77
2019-05-03T07:22:11.298Z,99669.68
2019-05-03T07:22:47.018Z,99672.52
2019-05-03T07:23:24.339Z,99672.52
2019-05-03T07:23:59.869Z,99671.23
2019-05-03T07:24:40.342Z,99668.05
2019-05-03T07:25:12.550Z,99675.73
2019-05-03T07:25:48.383Z,99675.73
2019-05-03T07:26:25.400Z,99670.64
2019-05-03T07:27:00.996Z,99671.87
2019-05-03T07:27:36.910Z,99671.87
2019-05-03T07:28:15.051Z,99680.27
2019-05-03T07:28:50.282Z,99673.30
2019-05-03T07:29:25.943Z,99684.51
2019-05-03T07:30:01.379Z,99677.58
2019-05-03T07:30:37.444Z,99685.28
2019-05-03T07:31:15.124Z,99674.59
2019-05-03T07:31:51.419Z,99677.12
2019-05-03T07:32:27.189Z,99678.59
2019-05-03T07:33:06.526Z,99682.55
2019-05-03T07:33:42.072Z,99680.36
2019-05-03T07:34:17.898Z,99680.36